sensor_id;sensor_type;location;lat;lon;timestamp;pressure;altitude;pressure_sealevel;temperature;humidity
78845;BME280;68195;50.854;2.860;2023-04-06T00:00:25;101703.91;;;7.36;70.93
78845;BME280;68195;50.854;2.860;2023-04-06T00:02:51;101701.34;;;7.33;71.40
78845;BME280;68195;50.854;2.860;2023-04-06T00:05:19;101631.16;;;6.94;70.53
78845;BME280;68195;50.854;2.860;2023-04-06T00:07:45;101690.94;;;7.33;71.33
78845;BME280;68195;50.854;2.860;2023-04-06T00:10:13;101656.88;;;7.07;70.70
78845;BME280;68195;50.854;2.860;2023-04-06T00:12:41;101595.31;;;6.70;71.26
78845;BME280;68195;50.854;2.860;2023-04-06T00:15:07;101686.72;;;7.28;71.45
78845;BME280;68195;50.854;2.860;2023-04-06T00:17:33;101675.59;;;7.23;70.57
78845;BME280;68195;50.854;2.860;2023-04-06T00:19:58;101666.13;;;7.20;70.60
78845;BME280;68195;50.854;2.860;2023-04-06T00:22:26;101649.84;;;7.12;70.85
78845;BME280;68195;50.854;2.860;2023-04-06T00:24:56;101628.44;;;7.01;70.55
78845;BME280;68195;50.854;2.860;2023-04-06T00:27:21;101634.38;;;7.06;70.99
78845;BME280;68195;50.854;2.860;2023-04-06T00:29:49;101644.75;;;7.06;70.77
78845;BME280;68195;50.854;2.860;2023-04-06T00:32:15;101671.22;;;7.25;70.53
78845;BME280;68195;50.854;2.860;2023-04-06T00:34:46;101660.84;;;7.23;70.39
78845;BME280;68195;50.854;2.860;2023-04-06T00:37:11;101657.53;;;7.16;70.86
78845;BME280;68195;50.854;2.860;2023-04-06T00:39:39;101593.38;;;6.78;71.26
78845;BME280;68195;50.854;2.860;2023-04-06T00:42:11;101659.31;;;7.14;70.63
78845;BME280;68195;50.854;2.860;2023-04-06T00:44:45;101607.97;;;6.85;70.93
78845;BME280;68195;50.854;2.860;2023-04-06T00:47:13;101601.00;;;6.87;70.97
78845;BME280;68195;50.854;2.860;2023-04-06T00:49:38;101638.53;;;7.14;71.70
78845;BME280;68195;50.854;2.860;2023-04-06T00:52:03;101590.78;;;6.80;71.51
78845;BME280;68195;50.854;2.860;2023-04-06T00:54:36;101603.50;;;6.93;70.94
78845;BME280;68195;50.854;2.860;2023-04-06T00:57:04;101555.59;;;6.65;71.83
78845;BME280;68195;50.854;2.860;2023-04-06T00:59:29;101595.03;;;6.84;71.95
78845;BME280;68195;50.854;2.860;2023-04-06T01:01:55;101630.78;;;7.13;72.10
78845;BME280;68195;50.854;2.860;2023-04-06T01:04:23;101614.69;;;6.95;72.09
78845;BME280;68195;50.854;2.860;2023-04-06T01:06:49;101574.44;;;6.76;72.06
78845;BME280;68195;50.854;2.860;2023-04-06T01:09:17;101583.09;;;6.75;72.35
78845;BME280;68195;50.854;2.860;2023-04-06T01:11:43;101625.72;;;7.07;72.59
78845;BME280;68195;50.854;2.860;2023-04-06T01:14:10;101624.88;;;7.06;72.59
78845;BME280;68195;50.854;2.860;2023-04-06T01:16:38;101574.44;;;6.76;72.08
78845;BME280;68195;50.854;2.860;2023-04-06T01:19:11;101604.34;;;6.94;72.99
78845;BME280;68195;50.854;2.860;2023-04-06T01:21:37;101612.81;;;7.02;73.11
78845;BME280;68195;50.854;2.860;2023-04-06T01:24:06;101599.06;;;6.97;72.53
78845;BME280;68195;50.854;2.860;2023-04-06T01:26:32;101529.84;;;6.55;73.33
78845;BME280;68195;50.854;2.860;2023-04-06T01:29:03;101612.72;;;7.07;73.63
78845;BME280;68195;50.854;2.860;2023-04-06T01:31:31;101604.13;;;7.03;73.09
78845;BME280;68195;50.854;2.860;2023-04-06T01:33:59;101586.97;;;6.96;73.85
78845;BME280;68195;50.854;2.860;2023-04-06T01:36:24;101573.31;;;6.88;73.78
78845;BME280;68195;50.854;2.860;2023-04-06T01:38:50;101561.25;;;6.85;73.78
78845;BME280;68195;50.854;2.860;2023-04-06T01:41:22;101529.53;;;6.71;73.24
78845;BME280;68195;50.854;2.860;2023-04-06T01:43:48;101573.06;;;6.98;73.47
78845;BME280;68195;50.854;2.860;2023-04-06T01:46:15;101470.69;;;6.31;73.65
78845;BME280;68195;50.854;2.860;2023-04-06T01:48:40;101515.78;;;6.66;73.55
78845;BME280;68195;50.854;2.860;2023-04-06T01:51:08;101539.66;;;6.83;74.46
78845;BME280;68195;50.854;2.860;2023-04-06T01:53:36;101490.91;;;6.55;74.54
78845;BME280;68195;50.854;2.860;2023-04-06T01:56:01;101568.56;;;7.07;74.89
78845;BME280;68195;50.854;2.860;2023-04-06T01:58:27;101553.16;;;6.99;74.75
78845;BME280;68195;50.854;2.860;2023-04-06T02:00:55;101554.91;;;6.98;74.48
78845;BME280;68195;50.854;2.860;2023-04-06T02:03:20;101576.19;;;7.14;75.52
78845;BME280;68195;50.854;2.860;2023-04-06T02:05:45;101511.22;;;6.77;75.35
78845;BME280;68195;50.854;2.860;2023-04-06T02:08:11;101572.72;;;7.14;75.29
78845;BME280;68195;50.854;2.860;2023-04-06T02:10:38;101511.94;;;6.84;75.29
78845;BME280;68195;50.854;2.860;2023-04-06T02:13:06;101533.38;;;6.93;76.14
78845;BME280;68195;50.854;2.860;2023-04-06T02:15:32;101520.66;;;6.81;76.97
78845;BME280;68195;50.854;2.860;2023-04-06T02:17:58;101501.06;;;6.66;76.11
78845;BME280;68195;50.854;2.860;2023-04-06T02:20:23;101571.78;;;7.18;76.98
78845;BME280;68195;50.854;2.860;2023-04-06T02:22:53;101523.94;;;6.89;76.68
78845;BME280;68195;50.854;2.860;2023-04-06T02:25:21;101569.19;;;7.18;76.46
78845;BME280;68195;50.854;2.860;2023-04-06T02:27:46;101555.34;;;7.17;76.69
78845;BME280;68195;50.854;2.860;2023-04-06T02:30:14;101559.75;;;7.14;76.74
78845;BME280;68195;50.854;2.860;2023-04-06T02:32:42;101557.03;;;7.18;77.12
78845;BME280;68195;50.854;2.860;2023-04-06T02:35:08;101520.41;;;6.93;77.40
78845;BME280;68195;50.854;2.860;2023-04-06T02:37:38;101545.13;;;7.08;76.59
78845;BME280;68195;50.854;2.860;2023-04-06T02:40:04;101532.31;;;7.02;77.39
78845;BME280;68195;50.854;2.860;2023-04-06T02:42:29;101487.84;;;6.77;77.33
78845;BME280;68195;50.854;2.860;2023-04-06T02:44:55;101487.84;;;6.78;77.82
78845;BME280;68195;50.854;2.860;2023-04-06T02:47:25;101531.38;;;7.05;77.31
78845;BME280;68195;50.854;2.860;2023-04-06T02:49:55;101504.06;;;6.87;77.72
78845;BME280;68195;50.854;2.860;2023-04-06T02:52:20;101516.81;;;6.97;78.02
78845;BME280;68195;50.854;2.860;2023-04-06T02:54:45;101549.31;;;7.15;79.08
78845;BME280;68195;50.854;2.860;2023-04-06T02:57:13;101543.28;;;7.15;78.45
78845;BME280;68195;50.854;2.860;2023-04-06T02:59:43;101532.06;;;7.13;78.84
78845;BME280;68195;50.854;2.860;2023-04-06T03:02:09;101551.72;;;7.23;80.11
78845;BME280;68195;50.854;2.860;2023-04-06T03:04:39;101553.50;;;7.21;80.19
78845;BME280;68195;50.854;2.860;2023-04-06T03:07:06;101526.00;;;7.12;80.02
78845;BME280;68195;50.854;2.860;2023-04-06T03:09:37;101535.41;;;7.18;80.59
78845;BME280;68195;50.854;2.860;2023-04-06T03:12:02;101464.50;;;6.77;80.17
78845;BME280;68195;50.854;2.860;2023-04-06T03:14:30;101536.97;;;7.25;80.95
78845;BME280;68195;50.854;2.860;2023-04-06T03:16:56;101506.25;;;7.07;81.70
78845;BME280;68195;50.854;2.860;2023-04-06T03:19:21;101536.16;;;7.23;80.93
78845;BME280;68195;50.854;2.860;2023-04-06T03:21:47;101507.09;;;7.07;80.95
78845;BME280;68195;50.854;2.860;2023-04-06T03:24:14;101506.16;;;7.10;81.21
78845;BME280;68195;50.854;2.860;2023-04-06T03:26:40;101480.53;;;6.94;81.40
78845;BME280;68195;50.854;2.860;2023-04-06T03:29:05;101507.78;;;7.14;81.40
78845;BME280;68195;50.854;2.860;2023-04-06T03:31:31;101518.78;;;7.25;81.21
78845;BME280;68195;50.854;2.860;2023-04-06T03:34:00;101497.31;;;7.17;82.00
78845;BME280;68195;50.854;2.860;2023-04-06T03:36:26;101509.31;;;7.23;80.70
78845;BME280;68195;50.854;2.860;2023-04-06T03:38:51;101511.06;;;7.22;82.23
78845;BME280;68195;50.854;2.860;2023-04-06T03:41:21;101464.81;;;7.01;81.11
78845;BME280;68195;50.854;2.860;2023-04-06T03:43:47;101454.50;;;6.97;80.95
78845;BME280;68195;50.854;2.860;2023-04-06T03:46:15;101433.06;;;6.89;81.86
78845;BME280;68195;50.854;2.860;2023-04-06T03:48:40;101471.53;;;7.09;81.32
78845;BME280;68195;50.854;2.860;2023-04-06T03:51:05;101501.41;;;7.27;81.11
78845;BME280;68195;50.854;2.860;2023-04-06T03:53:35;101499.72;;;7.26;80.97
78845;BME280;68195;50.854;2.860;2023-04-06T03:56:02;101491.94;;;7.26;81.49
78845;BME280;68195;50.854;2.860;2023-04-06T03:58:29;101421.91;;;6.84;80.85
78845;BME280;68195;50.854;2.860;2023-04-06T04:00:57;101464.53;;;7.13;82.14
78845;BME280;68195;50.854;2.860;2023-04-06T04:03:22;101498.94;;;7.23;81.45
78845;BME280;68195;50.854;2.860;2023-04-06T04:05:53;101472.16;;;7.19;81.73
78845;BME280;68195;50.854;2.860;2023-04-06T04:08:21;101462.03;;;7.08;81.24
78845;BME280;68195;50.854;2.860;2023-04-06T04:10:49;101423.75;;;6.81;82.12
78845;BME280;68195;50.854;2.860;2023-04-06T04:13:17;101402.16;;;6.78;81.41
78845;BME280;68195;50.854;2.860;2023-04-06T04:15:42;101488.50;;;7.24;81.08
78845;BME280;68195;50.854;2.860;2023-04-06T04:18:10;101480.84;;;7.19;81.41
78845;BME280;68195;50.854;2.860;2023-04-06T04:20:40;101468.72;;;7.18;81.95
78845;BME280;68195;50.854;2.860;2023-04-06T04:23:05;101435.44;;;6.98;81.28
78845;BME280;68195;50.854;2.860;2023-04-06T04:25:31;101444.19;;;6.94;81.38
78845;BME280;68195;50.854;2.860;2023-04-06T04:27:56;101403.16;;;6.73;81.58
78845;BME280;68195;50.854;2.860;2023-04-06T04:30:22;101392.91;;;6.67;82.09
78845;BME280;68195;50.854;2.860;2023-04-06T04:32:47;101453.47;;;7.05;80.92
78845;BME280;68195;50.854;2.860;2023-04-06T04:35:17;101471.34;;;7.17;80.62
78845;BME280;68195;50.854;2.860;2023-04-06T04:37:45;101435.66;;;6.89;81.37
78845;BME280;68195;50.854;2.860;2023-04-06T04:40:13;101432.16;;;6.90;80.77
78845;BME280;68195;50.854;2.860;2023-04-06T04:42:38;101438.91;;;6.97;80.73
78845;BME280;68195;50.854;2.860;2023-04-06T04:45:04;101476.53;;;7.17;81.36
78845;BME280;68195;50.854;2.860;2023-04-06T04:47:30;101438.19;;;6.92;81.57
78845;BME280;68195;50.854;2.860;2023-04-06T04:49:58;101429.41;;;6.98;81.50
78845;BME280;68195;50.854;2.860;2023-04-06T04:52:23;101395.44;;;6.70;80.82
78845;BME280;68195;50.854;2.860;2023-04-06T04:54:51;101467.13;;;7.13;82.00
78845;BME280;68195;50.854;2.860;2023-04-06T04:57:16;101424.34;;;6.92;82.04
78845;BME280;68195;50.854;2.860;2023-04-06T04:59:42;101459.50;;;7.07;81.41
78845;BME280;68195;50.854;2.860;2023-04-06T05:02:10;101459.25;;;7.16;80.91
78845;BME280;68195;50.854;2.860;2023-04-06T05:04:36;101418.34;;;6.88;80.91
78845;BME280;68195;50.854;2.860;2023-04-06T05:07:10;101438.72;;;7.07;80.58
78845;BME280;68195;50.854;2.860;2023-04-06T05:09:40;101442.25;;;7.04;80.96
78845;BME280;68195;50.854;2.860;2023-04-06T05:12:06;101403.75;;;6.84;81.07
78845;BME280;68195;50.854;2.860;2023-04-06T05:14:34;101451.59;;;7.11;80.24
78845;BME280;68195;50.854;2.860;2023-04-06T05:16:59;101413.13;;;6.91;80.95
78845;BME280;68195;50.854;2.860;2023-04-06T05:19:25;101394.31;;;6.80;80.45
78845;BME280;68195;50.854;2.860;2023-04-06T05:21:50;101434.47;;;7.03;80.42
78845;BME280;68195;50.854;2.860;2023-04-06T05:24:16;101388.38;;;6.76;80.50
78845;BME280;68195;50.854;2.860;2023-04-06T05:26:41;101381.53;;;6.72;80.00
78845;BME280;68195;50.854;2.860;2023-04-06T05:29:07;101375.56;;;6.69;80.67
78845;BME280;68195;50.854;2.860;2023-04-06T05:31:32;101378.94;;;6.72;80.35
78845;BME280;68195;50.854;2.860;2023-04-06T05:34:00;101376.47;;;6.68;80.51
78845;BME280;68195;50.854;2.860;2023-04-06T05:36:28;101407.16;;;6.86;80.80
78845;BME280;68195;50.854;2.860;2023-04-06T05:38:56;101407.09;;;6.89;81.08
78845;BME280;68195;50.854;2.860;2023-04-06T05:41:22;101377.19;;;6.73;81.33
78845;BME280;68195;50.854;2.860;2023-04-06T05:43:48;101404.53;;;6.88;81.70
78845;BME280;68195;50.854;2.860;2023-04-06T05:46:16;101376.34;;;6.72;82.00
78845;BME280;68195;50.854;2.860;2023-04-06T05:48:46;101380.69;;;6.72;82.70
78845;BME280;68195;50.854;2.860;2023-04-06T05:51:12;101430.16;;;7.02;82.40
78845;BME280;68195;50.854;2.860;2023-04-06T05:53:42;101427.66;;;6.98;82.56
78845;BME280;68195;50.854;2.860;2023-04-06T05:56:07;101428.53;;;6.97;81.90
78845;BME280;68195;50.854;2.860;2023-04-06T05:58:33;101404.50;;;6.89;82.58
78845;BME280;68195;50.854;2.860;2023-04-06T06:00:59;101376.34;;;6.72;82.72
78845;BME280;68195;50.854;2.860;2023-04-06T06:03:25;101402.88;;;6.85;82.87
78845;BME280;68195;50.854;2.860;2023-04-06T06:05:51;101395.19;;;6.81;82.18
78845;BME280;68195;50.854;2.860;2023-04-06T06:08:18;101374.72;;;6.67;82.44
78845;BME280;68195;50.854;2.860;2023-04-06T06:10:44;101408.06;;;6.85;82.82
78845;BME280;68195;50.854;2.860;2023-04-06T06:13:12;101367.00;;;6.65;83.45
78845;BME280;68195;50.854;2.860;2023-04-06T06:15:37;101395.94;;;6.84;83.18
78845;BME280;68195;50.854;2.860;2023-04-06T06:18:03;101395.09;;;6.84;82.08
78845;BME280;68195;50.854;2.860;2023-04-06T06:20:28;101366.91;;;6.70;83.52
78845;BME280;68195;50.854;2.860;2023-04-06T06:22:56;101363.47;;;6.68;83.57
78845;BME280;68195;50.854;2.860;2023-04-06T06:25:24;101390.72;;;6.87;83.31
78845;BME280;68195;50.854;2.860;2023-04-06T06:27:52;101407.84;;;6.94;83.46
78845;BME280;68195;50.854;2.860;2023-04-06T06:30:17;101372.81;;;6.75;82.96
78845;BME280;68195;50.854;2.860;2023-04-06T06:32:45;101407.00;;;6.94;83.60
78845;BME280;68195;50.854;2.860;2023-04-06T06:35:11;101418.13;;;6.97;84.55
78845;BME280;68195;50.854;2.860;2023-04-06T06:37:39;101350.63;;;6.63;83.71
78845;BME280;68195;50.854;2.860;2023-04-06T06:40:08;101354.88;;;6.66;83.57
78845;BME280;68195;50.854;2.860;2023-04-06T06:42:33;101407.84;;;6.94;84.51
78845;BME280;68195;50.854;2.860;2023-04-06T06:44:59;101355.72;;;6.66;83.54
78845;BME280;68195;50.854;2.860;2023-04-06T06:47:26;101360.91;;;6.66;83.82
78845;BME280;68195;50.854;2.860;2023-04-06T06:49:52;101389.81;;;6.88;83.85
78845;BME280;68195;50.854;2.860;2023-04-06T06:52:22;101384.63;;;6.87;84.12
78845;BME280;68195;50.854;2.860;2023-04-06T06:54:49;101390.47;;;6.96;84.28
78845;BME280;68195;50.854;2.860;2023-04-06T06:57:14;101350.44;;;6.69;84.32
78845;BME280;68195;50.854;2.860;2023-04-06T06:59:42;101396.56;;;6.95;84.62
78845;BME280;68195;50.854;2.860;2023-04-06T07:02:10;101343.69;;;6.64;83.71
78845;BME280;68195;50.854;2.860;2023-04-06T07:04:40;101385.44;;;6.90;84.12
78845;BME280;68195;50.854;2.860;2023-04-06T07:07:05;101360.75;;;6.74;84.49
78845;BME280;68195;50.854;2.860;2023-04-06T07:09:31;101394.72;;;6.99;84.73
78845;BME280;68195;50.854;2.860;2023-04-06T07:11:57;101382.03;;;6.87;84.67
78845;BME280;68195;50.854;2.860;2023-04-06T07:14:22;101342.63;;;6.71;84.35
78845;BME280;68195;50.854;2.860;2023-04-06T07:16:48;101394.69;;;7.01;84.16
78845;BME280;68195;50.854;2.860;2023-04-06T07:19:17;101383.50;;;6.98;84.82
78845;BME280;68195;50.854;2.860;2023-04-06T07:21:43;101380.19;;;6.93;85.46
78845;BME280;68195;50.854;2.860;2023-04-06T07:24:08;101381.75;;;6.99;85.99
78845;BME280;68195;50.854;2.860;2023-04-06T07:26:33;101367.19;;;6.93;85.01
78845;BME280;68195;50.854;2.860;2023-04-06T07:28:59;101328.00;;;6.68;84.80
78845;BME280;68195;50.854;2.860;2023-04-06T07:31:27;101315.84;;;6.69;84.94
78845;BME280;68195;50.854;2.860;2023-04-06T07:33:53;101350.09;;;6.85;84.88
78845;BME280;68195;50.854;2.860;2023-04-06T07:36:18;101363.66;;;6.96;86.23
78845;BME280;68195;50.854;2.860;2023-04-06T07:38:46;101323.66;;;6.67;85.03
78845;BME280;68195;50.854;2.860;2023-04-06T07:41:14;101349.31;;;6.81;84.98
78845;BME280;68195;50.854;2.860;2023-04-06T07:43:39;101347.53;;;6.83;86.26
78845;BME280;68195;50.854;2.860;2023-04-06T07:46:05;101321.06;;;6.67;85.42
78845;BME280;68195;50.854;2.860;2023-04-06T07:48:33;101352.63;;;6.86;85.22
78845;BME280;68195;50.854;2.860;2023-04-06T07:51:03;101355.19;;;6.88;85.60
78845;BME280;68195;50.854;2.860;2023-04-06T07:53:29;101368.16;;;6.89;85.83
78845;BME280;68195;50.854;2.860;2023-04-06T07:55:55;101376.69;;;6.94;85.93
78845;BME280;68195;50.854;2.860;2023-04-06T07:58:23;101331.31;;;6.73;85.83
78845;BME280;68195;50.854;2.860;2023-04-06T08:00:49;101331.31;;;6.73;86.56
78845;BME280;68195;50.854;2.860;2023-04-06T08:03:16;101356.84;;;6.92;86.67
78845;BME280;68195;50.854;2.860;2023-04-06T08:05:44;101372.19;;;7.01;86.90
78845;BME280;68195;50.854;2.860;2023-04-06T08:08:10;101364.47;;;6.98;86.92
78845;BME280;68195;50.854;2.860;2023-04-06T08:10:38;101316.66;;;6.71;86.89
78845;BME280;68195;50.854;2.860;2023-04-06T08:13:08;101341.28;;;6.90;88.00
78845;BME280;68195;50.854;2.860;2023-04-06T08:15:33;101353.28;;;6.96;87.37
78845;BME280;68195;50.854;2.860;2023-04-06T08:18:01;101345.41;;;6.99;87.51
78845;BME280;68195;50.854;2.860;2023-04-06T08:20:26;101347.19;;;6.97;87.68
78845;BME280;68195;50.854;2.860;2023-04-06T08:22:52;101321.56;;;6.83;87.72
78845;BME280;68195;50.854;2.860;2023-04-06T08:25:20;101348.13;;;6.93;87.68
78845;BME280;68195;50.854;2.860;2023-04-06T08:27:48;101326.75;;;6.83;88.21
78845;BME280;68195;50.854;2.860;2023-04-06T08:30:13;101325.81;;;6.86;87.46
78845;BME280;68195;50.854;2.860;2023-04-06T08:32:40;101359.97;;;7.05;88.75
78845;BME280;68195;50.854;2.860;2023-04-06T08:35:11;101355.53;;;7.08;88.40
78845;BME280;68195;50.854;2.860;2023-04-06T08:37:37;101354.63;;;7.11;87.89
78845;BME280;68195;50.854;2.860;2023-04-06T08:40:02;101347.75;;;7.08;88.66
78845;BME280;68195;50.854;2.860;2023-04-06T08:42:32;101350.31;;;7.10;88.96
78845;BME280;68195;50.854;2.860;2023-04-06T08:44:57;101357.97;;;7.14;88.71
78845;BME280;68195;50.854;2.860;2023-04-06T08:47:23;101346.66;;;7.17;88.34
78845;BME280;68195;50.854;2.860;2023-04-06T08:49:53;101305.78;;;6.91;88.12
78845;BME280;68195;50.854;2.860;2023-04-06T08:52:19;101353.47;;;7.21;88.73
78845;BME280;68195;50.854;2.860;2023-04-06T08:54:51;101333.72;;;7.15;89.19
78845;BME280;68195;50.854;2.860;2023-04-06T08:57:18;101329.47;;;7.13;88.83
78845;BME280;68195;50.854;2.860;2023-04-06T08:59:44;101341.28;;;7.25;88.65
78845;BME280;68195;50.854;2.860;2023-04-06T09:02:15;101307.19;;;7.04;88.64
78845;BME280;68195;50.854;2.860;2023-04-06T09:04:42;101276.19;;;6.98;89.00
78845;BME280;68195;50.854;2.860;2023-04-06T09:07:08;101327.28;;;7.30;88.50
78845;BME280;68195;50.854;2.860;2023-04-06T09:09:33;101307.59;;;7.22;88.99
78845;BME280;68195;50.854;2.860;2023-04-06T09:12:01;101333.22;;;7.34;88.25
78845;BME280;68195;50.854;2.860;2023-04-06T09:14:37;101329.81;;;7.32;88.69
78845;BME280;68195;50.854;2.860;2023-04-06T09:17:04;101314.28;;;7.30;88.84
78845;BME280;68195;50.854;2.860;2023-04-06T09:19:45;101333.84;;;7.44;88.10
78845;BME280;68195;50.854;2.860;2023-04-06T09:22:15;101339.78;;;7.47;89.41
78845;BME280;68195;50.854;2.860;2023-04-06T09:27:13;101323.34;;;7.47;87.94
78845;BME280;68195;50.854;2.860;2023-04-06T09:29:40;101282.34;;;7.27;88.97
78845;BME280;68195;50.854;2.860;2023-04-06T09:32:09;101328.31;;;7.56;88.85
78845;BME280;68195;50.854;2.860;2023-04-06T09:34:44;101295.03;;;7.37;88.61
78845;BME280;68195;50.854;2.860;2023-04-06T09:39:41;101314.41;;;7.57;88.22
78845;BME280;68195;50.854;2.860;2023-04-06T09:42:09;101312.59;;;7.60;88.28
78845;BME280;68195;50.854;2.860;2023-04-06T09:44:37;101322.84;;;7.65;88.97
78845;BME280;68195;50.854;2.860;2023-04-06T09:47:06;101307.53;;;7.56;88.84
78845;BME280;68195;50.854;2.860;2023-04-06T09:49:34;101316.75;;;7.66;88.83
78845;BME280;68195;50.854;2.860;2023-04-06T09:52:03;101320.09;;;7.71;89.33
78845;BME280;68195;50.854;2.860;2023-04-06T09:54:31;101309.81;;;7.67;89.24
78845;BME280;68195;50.854;2.860;2023-04-06T09:57:18;101317.28;;;7.77;88.80
78845;BME280;68195;50.854;2.860;2023-04-06T09:59:55;101326.69;;;7.81;89.07
78845;BME280;68195;50.854;2.860;2023-04-06T10:02:35;101318.81;;;7.85;88.70
78845;BME280;68195;50.854;2.860;2023-04-06T10:05:02;101317.03;;;7.87;89.29
78845;BME280;68195;50.854;2.860;2023-04-06T10:07:30;101275.41;;;7.57;89.07
78845;BME280;68195;50.854;2.860;2023-04-06T10:09:59;101306.00;;;7.78;89.80
78845;BME280;68195;50.854;2.860;2023-04-06T10:12:29;101289.69;;;7.73;88.66
78845;BME280;68195;50.854;2.860;2023-04-06T10:14:56;101252.06;;;7.55;89.79
78845;BME280;68195;50.854;2.860;2023-04-06T10:17:21;101323.72;;;7.95;89.35
78845;BME280;68195;50.854;2.860;2023-04-06T10:19:54;101325.31;;;7.99;90.21
78845;BME280;68195;50.854;2.860;2023-04-06T10:22:36;101296.16;;;7.88;89.33
78845;BME280;68195;50.854;2.860;2023-04-06T10:25:04;101278.06;;;7.85;89.72
78845;BME280;68195;50.854;2.860;2023-04-06T10:27:30;101306.06;;;8.05;89.66
78845;BME280;68195;50.854;2.860;2023-04-06T10:30:05;101194.59;;;7.36;89.44
78845;BME280;68195;50.854;2.860;2023-04-06T10:32:37;101299.84;;;8.11;89.38
78845;BME280;68195;50.854;2.860;2023-04-06T10:35:10;101227.41;;;7.69;88.50
78845;BME280;68195;50.854;2.860;2023-04-06T10:37:52;101292.84;;;8.13;89.31
78845;BME280;68195;50.854;2.860;2023-04-06T10:40:27;101285.06;;;8.11;89.81
78845;BME280;68195;50.854;2.860;2023-04-06T10:43:06;101292.66;;;8.19;89.22
78845;BME280;68195;50.854;2.860;2023-04-06T10:45:32;101255.78;;;8.05;88.43
78845;BME280;68195;50.854;2.860;2023-04-06T10:47:57;101268.31;;;8.20;89.72
78845;BME280;68195;50.854;2.860;2023-04-06T10:50:23;101276.63;;;8.31;89.21
78845;BME280;68195;50.854;2.860;2023-04-06T10:53:01;101268.00;;;8.29;89.29
78845;BME280;68195;50.854;2.860;2023-04-06T10:55:28;101235.25;;;8.24;89.68
78845;BME280;68195;50.854;2.860;2023-04-06T10:57:56;101239.53;;;8.25;89.88
78845;BME280;68195;50.854;2.860;2023-04-06T11:00:22;101261.22;;;8.53;90.33
78845;BME280;68195;50.854;2.860;2023-04-06T11:02:48;101211.56;;;8.31;90.80
78845;BME280;68195;50.854;2.860;2023-04-06T11:05:17;101253.69;;;8.71;91.26
78845;BME280;68195;50.854;2.860;2023-04-06T11:07:47;101258.53;;;8.81;90.39
78845;BME280;68195;50.854;2.860;2023-04-06T11:10:21;101209.78;;;8.60;89.87
78845;BME280;68195;50.854;2.860;2023-04-06T11:12:56;101241.78;;;8.89;89.78
78845;BME280;68195;50.854;2.860;2023-04-06T11:15:24;101239.03;;;8.93;89.46
78845;BME280;68195;50.854;2.860;2023-04-06T11:17:51;101258.34;;;9.11;89.46
78845;BME280;68195;50.854;2.860;2023-04-06T11:20:22;101188.44;;;8.75;89.55
78845;BME280;68195;50.854;2.860;2023-04-06T11:22:52;101230.19;;;8.97;90.18
78845;BME280;68195;50.854;2.860;2023-04-06T11:25:20;101231.84;;;9.00;89.71
78845;BME280;68195;50.854;2.860;2023-04-06T11:27:46;101227.41;;;9.02;89.71
78845;BME280;68195;50.854;2.860;2023-04-06T11:30:14;101249.13;;;9.26;89.67
78845;BME280;68195;50.854;2.860;2023-04-06T11:32:42;101253.47;;;9.27;90.40
78845;BME280;68195;50.854;2.860;2023-04-06T11:35:20;101246.44;;;9.29;89.88
78845;BME280;68195;50.854;2.860;2023-04-06T11:37:46;101181.72;;;8.93;90.60
78845;BME280;68195;50.854;2.860;2023-04-06T11:40:13;101236.09;;;9.26;90.10
78845;BME280;68195;50.854;2.860;2023-04-06T11:42:39;101169.69;;;8.89;89.75
78845;BME280;68195;50.854;2.860;2023-04-06T11:45:07;101232.31;;;9.35;91.56
78845;BME280;68195;50.854;2.860;2023-04-06T11:47:36;101230.50;;;9.37;89.76
78845;BME280;68195;50.854;2.860;2023-04-06T11:50:13;101194.63;;;9.20;90.00
78845;BME280;68195;50.854;2.860;2023-04-06T11:52:42;101218.09;;;9.43;90.24
78845;BME280;68195;50.854;2.860;2023-04-06T11:55:17;101223.06;;;9.50;90.76
78845;BME280;68195;50.854;2.860;2023-04-06T11:57:43;101221.03;;;9.58;91.03
78845;BME280;68195;50.854;2.860;2023-04-06T12:00:10;101212.41;;;9.56;91.11
78845;BME280;68195;50.854;2.860;2023-04-06T12:02:39;101205.75;;;9.49;90.48
78845;BME280;68195;50.854;2.860;2023-04-06T12:05:05;101215.63;;;9.62;90.86
78845;BME280;68195;50.854;2.860;2023-04-06T12:07:32;101231.09;;;9.67;91.15
78845;BME280;68195;50.854;2.860;2023-04-06T12:10:02;101188.50;;;9.44;90.20
78845;BME280;68195;50.854;2.860;2023-04-06T12:15:00;101222.06;;;9.76;90.60
78845;BME280;68195;50.854;2.860;2023-04-06T12:17:26;101146.41;;;9.32;90.39
78845;BME280;68195;50.854;2.860;2023-04-06T12:19:51;101224.50;;;9.80;91.05
78845;BME280;68195;50.854;2.860;2023-04-06T12:22:19;101218.25;;;9.84;91.21
78845;BME280;68195;50.854;2.860;2023-04-06T12:24:48;101212.94;;;9.88;91.81
78845;BME280;68195;50.854;2.860;2023-04-06T12:27:15;101179.91;;;9.64;90.78
78845;BME280;68195;50.854;2.860;2023-04-06T12:29:41;101220.00;;;10.06;91.16
78845;BME280;68195;50.854;2.860;2023-04-06T12:32:07;101222.38;;;10.12;92.02
78845;BME280;68195;50.854;2.860;2023-04-06T12:34:36;101206.19;;;10.04;91.23
78845;BME280;68195;50.854;2.860;2023-04-06T12:37:03;101150.56;;;9.81;92.17
78845;BME280;68195;50.854;2.860;2023-04-06T12:39:29;101188.69;;;10.06;91.65
78845;BME280;68195;50.854;2.860;2023-04-06T12:41:56;101146.13;;;9.83;91.76
78845;BME280;68195;50.854;2.860;2023-04-06T12:44:24;101194.28;;;10.19;91.46
78845;BME280;68195;50.854;2.860;2023-04-06T12:46:52;101234.16;;;10.44;91.31
78845;BME280;68195;50.854;2.860;2023-04-06T12:49:20;101195.78;;;10.24;90.40
78845;BME280;68195;50.854;2.860;2023-04-06T12:51:49;101194.06;;;10.23;90.76
78845;BME280;68195;50.854;2.860;2023-04-06T12:54:15;101163.38;;;10.08;91.46
78845;BME280;68195;50.854;2.860;2023-04-06T12:56:45;101222.97;;;10.41;90.64
78845;BME280;68195;50.854;2.860;2023-04-06T12:59:10;101204.78;;;10.39;91.13
78845;BME280;68195;50.854;2.860;2023-04-06T13:01:39;101205.47;;;10.43;90.91
78845;BME280;68195;50.854;2.860;2023-04-06T13:04:05;101186.72;;;10.35;91.24
78845;BME280;68195;50.854;2.860;2023-04-06T13:06:30;101137.88;;;10.15;89.99
78845;BME280;68195;50.854;2.860;2023-04-06T13:08:56;101191.28;;;10.50;89.71